Westhampton Beach, NY

9:37 AM EDT on July 06, 2015 (GMT -0400)
Phillips Creek | | Change Station
CLOSE
Current Station
Personal Weather Station
Location: East Quogue, NY
Elevation: 20 ft
Nearby Weather Stations

Elev 20 ft 40.84 °N, 72.59 °W | Updated 28 seconds ago

Partly Cloudy
Partly Cloudy
72.9 °F
Feels Like 71 °F
N
0.0
Wind Variable Wind from SSW
Gusts 4.0 mph

Today
High -- | Low -- °F
--% Chance of Precip.
Yesterday
High -- | Low -- °F
Precip. -- in
5:25 AM 8:24 PM
Waning Gibbous, 75% visible
Pressure 30.18 in
Visibility 10.0 miles
Clouds Clear
Heat Index 71 °F
Dew Point 70 °F
Humidity 90%
Rainfall 0.00 in
Snow Depth Not available.
UV 4 out of 12
Pollen 4.30 out of 12
Air Quality Not available.
Flu Activity Not available.
METAR KFOK 061253Z 25004KT 10SM CLR 24/21 A3018 RMK AO2 SLP218 T02440211

More Conditions Fewer Conditions

Pressure 30.18 in
Visibility 10.0 miles
Clouds Clear
Heat Index 71 °F
Dew Point 70 °F
Humidity 90%
Rainfall 0.00 in
Snow Depth Not available.
UV 4 out of 12
Pollen 4.30 out of 12
Air Quality Not available.
Flu Activity Not available.
METAR KFOK 061253Z 25004KT 10SM CLR 24/21 A3018 RMK AO2 SLP218 T02440211

More Conditions Fewer Conditions

10-Day Weather Forecast

×

Almanac

Astronomy

Jul. 06, 2015 Rise Set
Actual Time
Civil Twilight
Nautical Twilight
Astronomical Twilight
Moon
Length of Visible Light
Length of Day
Tomorrow will be .
, % of the Moon is Illuminated

Today's Extremes

State Highs State Lows

Community

WunderPhotos

Upload Photos

1,835,558 photos uploaded!

WunderBlogs® & News

Nearby

Air Quality

  Air Quality AQ Index Pollutant
Not available.

Snow Depth

Station Depth Elevation

Earthquake Activity

City Distance Mag. Time & Date
Minimum magnitude displayed is 2.5.

Coastal Water Temperatures

Place Temperature

Stations

Nearby Weather Stations

Station Location Temp. Windchill Dew Point Humidity Wind Precip. Elev Updated Type